sensor_id;sensor_type;location;lat;lon;timestamp;P1;durP1;ratioP1;P2;durP2;ratioP2
12654;SDS011;6392;44.644;11.448;2024-03-06T00:02:26;4.40;;;1.40;;
12654;SDS011;6392;44.644;11.448;2024-03-06T00:04:53;6.77;;;2.30;;
12654;SDS011;6392;44.644;11.448;2024-03-06T00:07:20;9.27;;;1.43;;
12654;SDS011;6392;44.644;11.448;2024-03-06T00:09:48;2.73;;;1.53;;
12654;SDS011;6392;44.644;11.448;2024-03-06T00:12:15;4.70;;;1.50;;
12654;SDS011;6392;44.644;11.448;2024-03-06T00:14:43;3.33;;;1.50;;
12654;SDS011;6392;44.644;11.448;2024-03-06T00:17:10;3.13;;;1.23;;
12654;SDS011;6392;44.644;11.448;2024-03-06T00:19:37;6.77;;;1.23;;
12654;SDS011;6392;44.644;11.448;2024-03-06T00:22:04;6.00;;;1.23;;
12654;SDS011;6392;44.644;11.448;2024-03-06T00:24:31;3.20;;;1.20;;
12654;SDS011;6392;44.644;11.448;2024-03-06T00:26:58;6.20;;;1.13;;
12654;SDS011;6392;44.644;11.448;2024-03-06T00:29:26;5.50;;;1.10;;
12654;SDS011;6392;44.644;11.448;2024-03-06T00:31:55;10.10;;;1.97;;
12654;SDS011;6392;44.644;11.448;2024-03-06T00:34:22;7.13;;;1.23;;
12654;SDS011;6392;44.644;11.448;2024-03-06T00:36:49;5.33;;;1.20;;
12654;SDS011;6392;44.644;11.448;2024-03-06T00:39:16;5.17;;;1.13;;
12654;SDS011;6392;44.644;11.448;2024-03-06T00:41:43;6.90;;;1.20;;
12654;SDS011;6392;44.644;11.448;2024-03-06T00:44:10;3.23;;;1.00;;
12654;SDS011;6392;44.644;11.448;2024-03-06T00:46:38;4.53;;;1.77;;
12654;SDS011;6392;44.644;11.448;2024-03-06T00:49:06;4.53;;;1.53;;
12654;SDS011;6392;44.644;11.448;2024-03-06T00:51:33;4.47;;;1.20;;
12654;SDS011;6392;44.644;11.448;2024-03-06T00:54:02;5.13;;;1.53;;
12654;SDS011;6392;44.644;11.448;2024-03-06T00:56:29;5.23;;;1.27;;
12654;SDS011;6392;44.644;11.448;2024-03-06T00:58:57;4.67;;;1.33;;
12654;SDS011;6392;44.644;11.448;2024-03-06T01:01:24;5.43;;;1.40;;
12654;SDS011;6392;44.644;11.448;2024-03-06T01:03:52;5.13;;;1.17;;
12654;SDS011;6392;44.644;11.448;2024-03-06T01:06:21;2.80;;;1.20;;
12654;SDS011;6392;44.644;11.448;2024-03-06T01:08:48;2.83;;;0.80;;
12654;SDS011;6392;44.644;11.448;2024-03-06T01:11:15;6.87;;;1.47;;
12654;SDS011;6392;44.644;11.448;2024-03-06T01:13:42;4.07;;;1.10;;
12654;SDS011;6392;44.644;11.448;2024-03-06T01:16:09;4.93;;;1.30;;
12654;SDS011;6392;44.644;11.448;2024-03-06T01:18:36;4.93;;;0.97;;
12654;SDS011;6392;44.644;11.448;2024-03-06T01:21:04;4.23;;;1.00;;
12654;SDS011;6392;44.644;11.448;2024-03-06T01:23:32;4.87;;;1.30;;
12654;SDS011;6392;44.644;11.448;2024-03-06T01:25:59;6.27;;;1.10;;
12654;SDS011;6392;44.644;11.448;2024-03-06T01:28:26;7.23;;;1.47;;
12654;SDS011;6392;44.644;11.448;2024-03-06T01:30:53;4.10;;;1.30;;
12654;SDS011;6392;44.644;11.448;2024-03-06T01:33:20;3.13;;;0.90;;
12654;SDS011;6392;44.644;11.448;2024-03-06T01:35:48;3.07;;;1.17;;
12654;SDS011;6392;44.644;11.448;2024-03-06T01:38:15;5.00;;;1.13;;
12654;SDS011;6392;44.644;11.448;2024-03-06T01:40:44;3.67;;;1.20;;
12654;SDS011;6392;44.644;11.448;2024-03-06T01:43:20;5.87;;;1.00;;
12654;SDS011;6392;44.644;11.448;2024-03-06T01:45:48;2.50;;;0.90;;
12654;SDS011;6392;44.644;11.448;2024-03-06T01:48:16;2.80;;;0.87;;
12654;SDS011;6392;44.644;11.448;2024-03-06T01:50:44;2.23;;;0.90;;
12654;SDS011;6392;44.644;11.448;2024-03-06T01:53:12;3.97;;;0.80;;
12654;SDS011;6392;44.644;11.448;2024-03-06T01:55:40;2.83;;;1.20;;
12654;SDS011;6392;44.644;11.448;2024-03-06T01:58:09;6.73;;;1.20;;
12654;SDS011;6392;44.644;11.448;2024-03-06T02:00:36;3.60;;;0.90;;
12654;SDS011;6392;44.644;11.448;2024-03-06T02:03:03;2.83;;;0.90;;
12654;SDS011;6392;44.644;11.448;2024-03-06T02:05:31;2.67;;;0.80;;
12654;SDS011;6392;44.644;11.448;2024-03-06T02:07:59;3.67;;;1.00;;
12654;SDS011;6392;44.644;11.448;2024-03-06T02:10:27;4.37;;;0.80;;
12654;SDS011;6392;44.644;11.448;2024-03-06T02:12:54;5.57;;;0.87;;
12654;SDS011;6392;44.644;11.448;2024-03-06T02:15:24;1.80;;;0.80;;
12654;SDS011;6392;44.644;11.448;2024-03-06T02:17:51;3.33;;;0.87;;
12654;SDS011;6392;44.644;11.448;2024-03-06T02:20:22;4.33;;;1.10;;
12654;SDS011;6392;44.644;11.448;2024-03-06T02:22:49;3.43;;;0.83;;
12654;SDS011;6392;44.644;11.448;2024-03-06T02:25:17;3.60;;;0.90;;
12654;SDS011;6392;44.644;11.448;2024-03-06T02:27:45;4.10;;;1.43;;
12654;SDS011;6392;44.644;11.448;2024-03-06T02:30:14;3.87;;;0.90;;
12654;SDS011;6392;44.644;11.448;2024-03-06T02:32:41;7.00;;;1.10;;
12654;SDS011;6392;44.644;11.448;2024-03-06T02:35:09;5.47;;;1.00;;
12654;SDS011;6392;44.644;11.448;2024-03-06T02:37:37;2.73;;;0.83;;
12654;SDS011;6392;44.644;11.448;2024-03-06T02:40:05;1.80;;;0.67;;
12654;SDS011;6392;44.644;11.448;2024-03-06T02:42:35;2.90;;;0.90;;
12654;SDS011;6392;44.644;11.448;2024-03-06T02:45:04;3.20;;;1.17;;
12654;SDS011;6392;44.644;11.448;2024-03-06T02:47:32;2.77;;;0.93;;
12654;SDS011;6392;44.644;11.448;2024-03-06T02:49:59;3.97;;;1.00;;
12654;SDS011;6392;44.644;11.448;2024-03-06T02:52:26;2.37;;;0.80;;
12654;SDS011;6392;44.644;11.448;2024-03-06T02:54:54;1.07;;;0.73;;
12654;SDS011;6392;44.644;11.448;2024-03-06T02:57:21;1.87;;;0.90;;
12654;SDS011;6392;44.644;11.448;2024-03-06T02:59:48;4.63;;;1.10;;
12654;SDS011;6392;44.644;11.448;2024-03-06T03:02:16;4.23;;;1.00;;
12654;SDS011;6392;44.644;11.448;2024-03-06T03:04:43;4.63;;;1.00;;
12654;SDS011;6392;44.644;11.448;2024-03-06T03:07:10;3.47;;;0.83;;
12654;SDS011;6392;44.644;11.448;2024-03-06T03:09:37;4.17;;;1.00;;
12654;SDS011;6392;44.644;11.448;2024-03-06T03:12:06;7.30;;;1.17;;
12654;SDS011;6392;44.644;11.448;2024-03-06T03:14:33;3.30;;;0.90;;
12654;SDS011;6392;44.644;11.448;2024-03-06T03:17:00;2.77;;;0.90;;
12654;SDS011;6392;44.644;11.448;2024-03-06T03:19:27;3.70;;;0.90;;
12654;SDS011;6392;44.644;11.448;2024-03-06T03:21:54;2.57;;;0.90;;
12654;SDS011;6392;44.644;11.448;2024-03-06T03:24:21;3.43;;;1.07;;
12654;SDS011;6392;44.644;11.448;2024-03-06T03:26:50;5.03;;;1.17;;
12654;SDS011;6392;44.644;11.448;2024-03-06T03:29:19;7.33;;;1.67;;
12654;SDS011;6392;44.644;11.448;2024-03-06T03:31:47;1.90;;;1.13;;
12654;SDS011;6392;44.644;11.448;2024-03-06T03:34:14;2.10;;;0.90;;
12654;SDS011;6392;44.644;11.448;2024-03-06T03:36:41;4.63;;;0.83;;
12654;SDS011;6392;44.644;11.448;2024-03-06T03:39:09;2.80;;;0.70;;
12654;SDS011;6392;44.644;11.448;2024-03-06T03:41:44;3.00;;;0.83;;
12654;SDS011;6392;44.644;11.448;2024-03-06T03:44:12;3.63;;;0.80;;
12654;SDS011;6392;44.644;11.448;2024-03-06T03:46:40;3.80;;;1.00;;
12654;SDS011;6392;44.644;11.448;2024-03-06T03:49:08;3.67;;;0.90;;
12654;SDS011;6392;44.644;11.448;2024-03-06T03:51:35;2.43;;;0.90;;
12654;SDS011;6392;44.644;11.448;2024-03-06T03:54:02;2.00;;;0.70;;
12654;SDS011;6392;44.644;11.448;2024-03-06T03:56:30;4.10;;;1.00;;
12654;SDS011;6392;44.644;11.448;2024-03-06T03:58:57;5.23;;;1.10;;
12654;SDS011;6392;44.644;11.448;2024-03-06T04:01:24;5.87;;;1.07;;
12654;SDS011;6392;44.644;11.448;2024-03-06T04:03:52;2.80;;;0.90;;
12654;SDS011;6392;44.644;11.448;2024-03-06T04:06:19;5.77;;;1.20;;
12654;SDS011;6392;44.644;11.448;2024-03-06T04:08:46;6.93;;;1.03;;
12654;SDS011;6392;44.644;11.448;2024-03-06T04:11:13;1.63;;;0.93;;
12654;SDS011;6392;44.644;11.448;2024-03-06T04:13:41;5.17;;;0.87;;
12654;SDS011;6392;44.644;11.448;2024-03-06T04:16:08;2.43;;;1.10;;
12654;SDS011;6392;44.644;11.448;2024-03-06T04:18:35;4.13;;;0.80;;
12654;SDS011;6392;44.644;11.448;2024-03-06T04:21:04;4.23;;;0.70;;
12654;SDS011;6392;44.644;11.448;2024-03-06T04:23:31;3.53;;;1.00;;
12654;SDS011;6392;44.644;11.448;2024-03-06T04:25:59;4.90;;;1.33;;
12654;SDS011;6392;44.644;11.448;2024-03-06T04:28:26;4.00;;;1.20;;
12654;SDS011;6392;44.644;11.448;2024-03-06T04:30:53;4.73;;;0.93;;
12654;SDS011;6392;44.644;11.448;2024-03-06T04:33:20;6.90;;;0.90;;
12654;SDS011;6392;44.644;11.448;2024-03-06T04:35:48;4.90;;;1.70;;
12654;SDS011;6392;44.644;11.448;2024-03-06T04:38:16;2.13;;;0.80;;
12654;SDS011;6392;44.644;11.448;2024-03-06T04:40:43;5.93;;;1.10;;
12654;SDS011;6392;44.644;11.448;2024-03-06T04:43:10;3.87;;;0.93;;
12654;SDS011;6392;44.644;11.448;2024-03-06T04:45:37;3.77;;;1.10;;
12654;SDS011;6392;44.644;11.448;2024-03-06T04:48:05;4.60;;;1.20;;
12654;SDS011;6392;44.644;11.448;2024-03-06T04:50:33;1.80;;;0.70;;
12654;SDS011;6392;44.644;11.448;2024-03-06T04:53:00;4.97;;;0.87;;
12654;SDS011;6392;44.644;11.448;2024-03-06T04:55:28;2.77;;;0.80;;
12654;SDS011;6392;44.644;11.448;2024-03-06T04:57:56;7.10;;;1.10;;
12654;SDS011;6392;44.644;11.448;2024-03-06T05:00:23;1.87;;;0.90;;
12654;SDS011;6392;44.644;11.448;2024-03-06T05:02:50;2.97;;;0.80;;
12654;SDS011;6392;44.644;11.448;2024-03-06T05:05:17;3.50;;;1.00;;
12654;SDS011;6392;44.644;11.448;2024-03-06T05:07:44;6.67;;;1.67;;
12654;SDS011;6392;44.644;11.448;2024-03-06T05:10:11;6.07;;;1.00;;
12654;SDS011;6392;44.644;11.448;2024-03-06T05:12:39;4.43;;;0.90;;
12654;SDS011;6392;44.644;11.448;2024-03-06T05:15:07;6.07;;;1.20;;
12654;SDS011;6392;44.644;11.448;2024-03-06T05:17:34;1.70;;;0.80;;
12654;SDS011;6392;44.644;11.448;2024-03-06T05:20:01;4.00;;;1.30;;
12654;SDS011;6392;44.644;11.448;2024-03-06T05:22:29;4.80;;;1.10;;
12654;SDS011;6392;44.644;11.448;2024-03-06T05:24:56;4.03;;;0.90;;
12654;SDS011;6392;44.644;11.448;2024-03-06T05:27:24;6.57;;;1.57;;
12654;SDS011;6392;44.644;11.448;2024-03-06T05:29:52;2.60;;;1.03;;
12654;SDS011;6392;44.644;11.448;2024-03-06T05:32:19;4.10;;;0.90;;
12654;SDS011;6392;44.644;11.448;2024-03-06T05:34:46;7.33;;;1.00;;
12654;SDS011;6392;44.644;11.448;2024-03-06T05:37:13;5.93;;;0.90;;
12654;SDS011;6392;44.644;11.448;2024-03-06T05:39:40;6.63;;;1.10;;
12654;SDS011;6392;44.644;11.448;2024-03-06T05:42:07;5.33;;;0.90;;
12654;SDS011;6392;44.644;11.448;2024-03-06T05:44:34;3.20;;;0.77;;
12654;SDS011;6392;44.644;11.448;2024-03-06T05:47:03;2.67;;;1.00;;
12654;SDS011;6392;44.644;11.448;2024-03-06T05:49:31;5.23;;;0.90;;
12654;SDS011;6392;44.644;11.448;2024-03-06T05:51:59;5.17;;;0.90;;
12654;SDS011;6392;44.644;11.448;2024-03-06T05:54:27;5.37;;;0.87;;
12654;SDS011;6392;44.644;11.448;2024-03-06T05:56:58;6.57;;;0.80;;
12654;SDS011;6392;44.644;11.448;2024-03-06T05:59:25;2.83;;;0.97;;
12654;SDS011;6392;44.644;11.448;2024-03-06T06:01:53;2.10;;;0.60;;
12654;SDS011;6392;44.644;11.448;2024-03-06T06:04:22;3.83;;;0.83;;
12654;SDS011;6392;44.644;11.448;2024-03-06T06:06:49;6.10;;;1.53;;
12654;SDS011;6392;44.644;11.448;2024-03-06T06:09:16;3.03;;;0.67;;
12654;SDS011;6392;44.644;11.448;2024-03-06T06:15:05;2.40;;;1.07;;
12654;SDS011;6392;44.644;11.448;2024-03-06T06:17:33;4.87;;;0.80;;
12654;SDS011;6392;44.644;11.448;2024-03-06T06:20:02;5.00;;;0.90;;
12654;SDS011;6392;44.644;11.448;2024-03-06T06:22:34;4.83;;;1.27;;
12654;SDS011;6392;44.644;11.448;2024-03-06T06:25:01;5.23;;;1.10;;
12654;SDS011;6392;44.644;11.448;2024-03-06T06:27:29;6.30;;;1.17;;
12654;SDS011;6392;44.644;11.448;2024-03-06T06:29:56;3.47;;;1.00;;
12654;SDS011;6392;44.644;11.448;2024-03-06T06:32:23;4.40;;;1.33;;
12654;SDS011;6392;44.644;11.448;2024-03-06T06:34:50;4.13;;;1.20;;
12654;SDS011;6392;44.644;11.448;2024-03-06T06:37:18;2.73;;;1.00;;
12654;SDS011;6392;44.644;11.448;2024-03-06T06:39:45;5.20;;;1.00;;
12654;SDS011;6392;44.644;11.448;2024-03-06T06:42:13;5.60;;;1.17;;
12654;SDS011;6392;44.644;11.448;2024-03-06T06:44:40;4.17;;;0.90;;
12654;SDS011;6392;44.644;11.448;2024-03-06T06:47:07;3.73;;;1.10;;
12654;SDS011;6392;44.644;11.448;2024-03-06T06:49:34;2.73;;;0.90;;
12654;SDS011;6392;44.644;11.448;2024-03-06T06:52:01;2.03;;;0.97;;
12654;SDS011;6392;44.644;11.448;2024-03-06T06:54:30;5.43;;;1.30;;
12654;SDS011;6392;44.644;11.448;2024-03-06T06:56:57;3.57;;;1.00;;
12654;SDS011;6392;44.644;11.448;2024-03-06T06:59:24;2.90;;;1.23;;
12654;SDS011;6392;44.644;11.448;2024-03-06T07:01:52;2.87;;;0.80;;
12654;SDS011;6392;44.644;11.448;2024-03-06T07:04:20;2.33;;;0.93;;
12654;SDS011;6392;44.644;11.448;2024-03-06T07:06:49;3.43;;;1.00;;
12654;SDS011;6392;44.644;11.448;2024-03-06T07:09:16;2.50;;;1.00;;
12654;SDS011;6392;44.644;11.448;2024-03-06T07:11:45;4.97;;;1.10;;
12654;SDS011;6392;44.644;11.448;2024-03-06T07:14:13;5.80;;;1.07;;
12654;SDS011;6392;44.644;11.448;2024-03-06T07:16:41;3.30;;;1.57;;
12654;SDS011;6392;44.644;11.448;2024-03-06T07:19:09;6.63;;;1.33;;
12654;SDS011;6392;44.644;11.448;2024-03-06T07:21:36;5.73;;;1.37;;
12654;SDS011;6392;44.644;11.448;2024-03-06T07:24:04;6.17;;;1.20;;
12654;SDS011;6392;44.644;11.448;2024-03-06T07:26:32;6.30;;;1.17;;
12654;SDS011;6392;44.644;11.448;2024-03-06T07:29:00;3.97;;;1.10;;
12654;SDS011;6392;44.644;11.448;2024-03-06T07:31:28;5.17;;;1.00;;
12654;SDS011;6392;44.644;11.448;2024-03-06T07:33:55;6.43;;;1.30;;
12654;SDS011;6392;44.644;11.448;2024-03-06T07:36:22;5.33;;;1.60;;
12654;SDS011;6392;44.644;11.448;2024-03-06T07:38:49;3.70;;;1.07;;
12654;SDS011;6392;44.644;11.448;2024-03-06T07:41:16;3.17;;;0.97;;
12654;SDS011;6392;44.644;11.448;2024-03-06T07:43:43;4.80;;;1.23;;
12654;SDS011;6392;44.644;11.448;2024-03-06T07:46:11;6.03;;;1.00;;
12654;SDS011;6392;44.644;11.448;2024-03-06T07:48:41;4.07;;;1.57;;
12654;SDS011;6392;44.644;11.448;2024-03-06T07:51:09;6.90;;;1.23;;
12654;SDS011;6392;44.644;11.448;2024-03-06T07:53:36;5.93;;;1.33;;
12654;SDS011;6392;44.644;11.448;2024-03-06T07:56:03;5.73;;;3.50;;
12654;SDS011;6392;44.644;11.448;2024-03-06T07:58:30;5.23;;;2.73;;
12654;SDS011;6392;44.644;11.448;2024-03-06T08:00:58;6.67;;;2.73;;
12654;SDS011;6392;44.644;11.448;2024-03-06T08:03:26;3.83;;;2.60;;
12654;SDS011;6392;44.644;11.448;2024-03-06T08:05:53;5.90;;;4.23;;
12654;SDS011;6392;44.644;11.448;2024-03-06T08:08:20;6.67;;;4.87;;
12654;SDS011;6392;44.644;11.448;2024-03-06T08:10:49;7.23;;;4.80;;
12654;SDS011;6392;44.644;11.448;2024-03-06T08:13:16;6.73;;;4.93;;
12654;SDS011;6392;44.644;11.448;2024-03-06T08:15:44;7.10;;;5.07;;
12654;SDS011;6392;44.644;11.448;2024-03-06T08:18:11;7.97;;;5.10;;
12654;SDS011;6392;44.644;11.448;2024-03-06T08:20:41;6.40;;;4.93;;
12654;SDS011;6392;44.644;11.448;2024-03-06T08:23:08;7.30;;;5.27;;
12654;SDS011;6392;44.644;11.448;2024-03-06T08:25:36;12.10;;;6.47;;
12654;SDS011;6392;44.644;11.448;2024-03-06T08:28:03;10.07;;;6.30;;
12654;SDS011;6392;44.644;11.448;2024-03-06T08:30:31;8.73;;;6.20;;
12654;SDS011;6392;44.644;11.448;2024-03-06T08:32:58;8.43;;;6.07;;
12654;SDS011;6392;44.644;11.448;2024-03-06T08:35:25;7.50;;;5.80;;
12654;SDS011;6392;44.644;11.448;2024-03-06T08:37:54;8.30;;;5.83;;
12654;SDS011;6392;44.644;11.448;2024-03-06T08:40:21;8.27;;;5.83;;
12654;SDS011;6392;44.644;11.448;2024-03-06T08:42:50;8.77;;;5.53;;
12654;SDS011;6392;44.644;11.448;2024-03-06T08:45:18;7.60;;;5.50;;
12654;SDS011;6392;44.644;11.448;2024-03-06T08:47:45;8.47;;;5.73;;
12654;SDS011;6392;44.644;11.448;2024-03-06T08:50:13;9.43;;;5.83;;
12654;SDS011;6392;44.644;11.448;2024-03-06T08:52:40;9.00;;;5.50;;
12654;SDS011;6392;44.644;11.448;2024-03-06T08:55:08;8.40;;;5.63;;
12654;SDS011;6392;44.644;11.448;2024-03-06T08:57:36;9.30;;;5.47;;
12654;SDS011;6392;44.644;11.448;2024-03-06T09:00:04;9.80;;;5.23;;
12654;SDS011;6392;44.644;11.448;2024-03-06T09:02:35;5.90;;;3.90;;
12654;SDS011;6392;44.644;11.448;2024-03-06T09:05:03;7.83;;;4.77;;
12654;SDS011;6392;44.644;11.448;2024-03-06T09:07:31;6.53;;;4.10;;
12654;SDS011;6392;44.644;11.448;2024-03-06T09:10:02;7.97;;;3.87;;
12654;SDS011;6392;44.644;11.448;2024-03-06T09:12:32;5.40;;;3.80;;
12654;SDS011;6392;44.644;11.448;2024-03-06T09:14:59;6.60;;;4.17;;
12654;SDS011;6392;44.644;11.448;2024-03-06T09:17:27;5.30;;;3.60;;
12654;SDS011;6392;44.644;11.448;2024-03-06T09:19:54;6.10;;;3.67;;
12654;SDS011;6392;44.644;11.448;2024-03-06T09:22:21;11.47;;;3.50;;
12654;SDS011;6392;44.644;11.448;2024-03-06T09:24:48;7.23;;;4.03;;
12654;SDS011;6392;44.644;11.448;2024-03-06T09:27:16;5.77;;;3.47;;
12654;SDS011;6392;44.644;11.448;2024-03-06T09:29:44;5.43;;;3.67;;
12654;SDS011;6392;44.644;11.448;2024-03-06T09:32:12;5.20;;;3.23;;
12654;SDS011;6392;44.644;11.448;2024-03-06T09:34:40;4.57;;;2.97;;
12654;SDS011;6392;44.644;11.448;2024-03-06T09:37:09;4.97;;;3.33;;
12654;SDS011;6392;44.644;11.448;2024-03-06T09:39:36;6.03;;;3.00;;
12654;SDS011;6392;44.644;11.448;2024-03-06T09:42:03;7.20;;;3.20;;
12654;SDS011;6392;44.644;11.448;2024-03-06T09:44:30;6.73;;;2.80;;
12654;SDS011;6392;44.644;11.448;2024-03-06T09:47:02;6.43;;;3.47;;
12654;SDS011;6392;44.644;11.448;2024-03-06T09:49:29;6.27;;;3.43;;
12654;SDS011;6392;44.644;11.448;2024-03-06T09:51:57;4.30;;;2.90;;
12654;SDS011;6392;44.644;11.448;2024-03-06T09:54:26;5.33;;;3.27;;
12654;SDS011;6392;44.644;11.448;2024-03-06T09:56:53;7.23;;;3.27;;
12654;SDS011;6392;44.644;11.448;2024-03-06T09:59:22;5.27;;;2.60;;
12654;SDS011;6392;44.644;11.448;2024-03-06T10:01:50;8.07;;;2.70;;
12654;SDS011;6392;44.644;11.448;2024-03-06T10:04:22;6.33;;;2.43;;
12654;SDS011;6392;44.644;11.448;2024-03-06T10:06:51;2.77;;;1.70;;
12654;SDS011;6392;44.644;11.448;2024-03-06T10:09:20;4.10;;;2.03;;
12654;SDS011;6392;44.644;11.448;2024-03-06T10:11:48;5.50;;;2.20;;
12654;SDS011;6392;44.644;11.448;2024-03-06T10:14:18;4.47;;;1.93;;
12654;SDS011;6392;44.644;11.448;2024-03-06T10:16:54;5.80;;;1.83;;
12654;SDS011;6392;44.644;11.448;2024-03-06T10:19:24;3.87;;;2.00;;
12654;SDS011;6392;44.644;11.448;2024-03-06T10:21:52;4.97;;;2.47;;
12654;SDS011;6392;44.644;11.448;2024-03-06T10:24:20;2.93;;;2.00;;
12654;SDS011;6392;44.644;11.448;2024-03-06T10:26:48;2.93;;;1.70;;
12654;SDS011;6392;44.644;11.448;2024-03-06T10:29:16;4.17;;;1.50;;
12654;SDS011;6392;44.644;11.448;2024-03-06T10:31:54;4.57;;;1.73;;
12654;SDS011;6392;44.644;11.448;2024-03-06T10:34:24;3.70;;;1.90;;
12654;SDS011;6392;44.644;11.448;2024-03-06T10:36:54;6.17;;;2.03;;
12654;SDS011;6392;44.644;11.448;2024-03-06T10:39:22;3.00;;;2.00;;
12654;SDS011;6392;44.644;11.448;2024-03-06T10:41:51;4.23;;;1.67;;
12654;SDS011;6392;44.644;11.448;2024-03-06T10:44:20;2.83;;;1.87;;
12654;SDS011;6392;44.644;11.448;2024-03-06T10:46:50;2.10;;;1.30;;
12654;SDS011;6392;44.644;11.448;2024-03-06T10:49:23;2.60;;;1.57;;
12654;SDS011;6392;44.644;11.448;2024-03-06T10:51:52;3.50;;;1.83;;
12654;SDS011;6392;44.644;11.448;2024-03-06T10:54:23;2.97;;;1.40;;
12654;SDS011;6392;44.644;11.448;2024-03-06T10:56:53;5.00;;;1.47;;
12654;SDS011;6392;44.644;11.448;2024-03-06T10:59:21;4.07;;;1.50;;
12654;SDS011;6392;44.644;11.448;2024-03-06T11:01:53;2.50;;;1.10;;
12654;SDS011;6392;44.644;11.448;2024-03-06T11:04:21;1.73;;;1.00;;
12654;SDS011;6392;44.644;11.448;2024-03-06T11:06:53;3.73;;;1.07;;
12654;SDS011;6392;44.644;11.448;2024-03-06T11:09:21;2.97;;;1.20;;
12654;SDS011;6392;44.644;11.448;2024-03-06T11:11:48;1.60;;;1.20;;
12654;SDS011;6392;44.644;11.448;2024-03-06T11:14:16;3.37;;;1.40;;
12654;SDS011;6392;44.644;11.448;2024-03-06T11:16:56;3.53;;;1.20;;
12654;SDS011;6392;44.644;11.448;2024-03-06T11:19:26;1.73;;;0.90;;
12654;SDS011;6392;44.644;11.448;2024-03-06T11:21:54;3.93;;;1.10;;
12654;SDS011;6392;44.644;11.448;2024-03-06T11:24:21;7.73;;;1.53;;
12654;SDS011;6392;44.644;11.448;2024-03-06T11:26:49;1.97;;;1.13;;
12654;SDS011;6392;44.644;11.448;2024-03-06T11:29:22;1.73;;;1.00;;
12654;SDS011;6392;44.644;11.448;2024-03-06T11:32:01;4.47;;;1.30;;
12654;SDS011;6392;44.644;11.448;2024-03-06T11:34:33;3.93;;;1.30;;
12654;SDS011;6392;44.644;11.448;2024-03-06T11:37:04;2.63;;;1.40;;
12654;SDS011;6392;44.644;11.448;2024-03-06T11:39:34;2.10;;;1.33;;
12654;SDS011;6392;44.644;11.448;2024-03-06T11:42:02;4.43;;;1.60;;
12654;SDS011;6392;44.644;11.448;2024-03-06T11:44:33;2.60;;;1.20;;
12654;SDS011;6392;44.644;11.448;2024-03-06T11:47:01;4.43;;;1.50;;
12654;SDS011;6392;44.644;11.448;2024-03-06T11:49:29;1.50;;;1.10;;
12654;SDS011;6392;44.644;11.448;2024-03-06T11:52:00;3.80;;;1.70;;
12654;SDS011;6392;44.644;11.448;2024-03-06T11:54:30;2.40;;;1.40;;
12654;SDS011;6392;44.644;11.448;2024-03-06T11:56:58;5.07;;;1.27;;
12654;SDS011;6392;44.644;11.448;2024-03-06T11:59:27;2.77;;;1.23;;
12654;SDS011;6392;44.644;11.448;2024-03-06T12:01:55;2.87;;;1.30;;
12654;SDS011;6392;44.644;11.448;2024-03-06T12:04:23;2.50;;;1.20;;
12654;SDS011;6392;44.644;11.448;2024-03-06T12:06:51;2.03;;;1.20;;
12654;SDS011;6392;44.644;11.448;2024-03-06T12:09:19;2.30;;;1.27;;
12654;SDS011;6392;44.644;11.448;2024-03-06T12:11:46;1.40;;;1.17;;
12654;SDS011;6392;44.644;11.448;2024-03-06T12:14:14;4.03;;;1.60;;
12654;SDS011;6392;44.644;11.448;2024-03-06T12:16:43;2.70;;;1.30;;
12654;SDS011;6392;44.644;11.448;2024-03-06T12:19:11;2.07;;;1.33;;
12654;SDS011;6392;44.644;11.448;2024-03-06T12:21:38;4.03;;;1.30;;
12654;SDS011;6392;44.644;11.448;2024-03-06T12:24:06;1.97;;;1.20;;
12654;SDS011;6392;44.644;11.448;2024-03-06T12:26:36;0.80;;;0.80;;
12654;SDS011;6392;44.644;11.448;2024-03-06T12:29:04;2.83;;;0.80;;
12654;SDS011;6392;44.644;11.448;2024-03-06T12:31:32;4.43;;;1.10;;
12654;SDS011;6392;44.644;11.448;2024-03-06T12:34:00;1.07;;;0.90;;
12654;SDS011;6392;44.644;11.448;2024-03-06T12:36:28;1.40;;;0.90;;
12654;SDS011;6392;44.644;11.448;2024-03-06T12:38:56;2.03;;;0.90;;
12654;SDS011;6392;44.644;11.448;2024-03-06T12:41:24;4.73;;;0.97;;
12654;SDS011;6392;44.644;11.448;2024-03-06T12:43:54;2.57;;;1.10;;
12654;SDS011;6392;44.644;11.448;2024-03-06T12:46:22;1.10;;;0.97;;
12654;SDS011;6392;44.644;11.448;2024-03-06T12:48:51;1.63;;;1.20;;
12654;SDS011;6392;44.644;11.448;2024-03-06T12:51:18;4.20;;;1.67;;
12654;SDS011;6392;44.644;11.448;2024-03-06T12:53:45;2.30;;;1.53;;
12654;SDS011;6392;44.644;11.448;2024-03-06T12:56:13;1.93;;;1.70;;
12654;SDS011;6392;44.644;11.448;2024-03-06T12:58:40;2.80;;;1.47;;
12654;SDS011;6392;44.644;11.448;2024-03-06T13:01:08;1.73;;;1.47;;
12654;SDS011;6392;44.644;11.448;2024-03-06T13:03:36;1.60;;;1.30;;
12654;SDS011;6392;44.644;11.448;2024-03-06T13:06:04;1.90;;;1.40;;
12654;SDS011;6392;44.644;11.448;2024-03-06T13:08:31;2.10;;;1.60;;
12654;SDS011;6392;44.644;11.448;2024-03-06T13:10:59;2.30;;;1.70;;
12654;SDS011;6392;44.644;11.448;2024-03-06T13:13:26;3.40;;;1.20;;
12654;SDS011;6392;44.644;11.448;2024-03-06T13:15:54;2.43;;;1.20;;
12654;SDS011;6392;44.644;11.448;2024-03-06T13:18:23;1.67;;;1.17;;
12654;SDS011;6392;44.644;11.448;2024-03-06T13:20:50;2.37;;;1.20;;
12654;SDS011;6392;44.644;11.448;2024-03-06T13:23:18;1.80;;;1.10;;
12654;SDS011;6392;44.644;11.448;2024-03-06T13:25:45;4.07;;;1.27;;
12654;SDS011;6392;44.644;11.448;2024-03-06T13:28:12;3.80;;;1.20;;
12654;SDS011;6392;44.644;11.448;2024-03-06T13:30:39;2.10;;;1.20;;
12654;SDS011;6392;44.644;11.448;2024-03-06T13:33:06;4.83;;;1.13;;
12654;SDS011;6392;44.644;11.448;2024-03-06T13:35:35;1.53;;;1.00;;
12654;SDS011;6392;44.644;11.448;2024-03-06T13:38:02;3.83;;;1.50;;
12654;SDS011;6392;44.644;11.448;2024-03-06T13:40:29;3.00;;;1.30;;
12654;SDS011;6392;44.644;11.448;2024-03-06T13:42:56;5.17;;;1.70;;
12654;SDS011;6392;44.644;11.448;2024-03-06T13:45:23;2.50;;;1.47;;
12654;SDS011;6392;44.644;11.448;2024-03-06T13:47:51;2.53;;;1.13;;
12654;SDS011;6392;44.644;11.448;2024-03-06T13:50:18;2.90;;;1.73;;
12654;SDS011;6392;44.644;11.448;2024-03-06T13:52:48;2.37;;;1.33;;
12654;SDS011;6392;44.644;11.448;2024-03-06T13:55:15;3.53;;;1.10;;
12654;SDS011;6392;44.644;11.448;2024-03-06T13:57:43;2.77;;;1.20;;
12654;SDS011;6392;44.644;11.448;2024-03-06T14:00:11;2.53;;;1.30;;
12654;SDS011;6392;44.644;11.448;2024-03-06T14:02:42;2.90;;;1.67;;
12654;SDS011;6392;44.644;11.448;2024-03-06T14:05:11;2.70;;;1.37;;
12654;SDS011;6392;44.644;11.448;2024-03-06T14:07:38;1.67;;;1.17;;
12654;SDS011;6392;44.644;11.448;2024-03-06T14:10:08;2.73;;;1.43;;
12654;SDS011;6392;44.644;11.448;2024-03-06T14:12:36;4.37;;;1.30;;
12654;SDS011;6392;44.644;11.448;2024-03-06T14:15:04;2.73;;;1.50;;
12654;SDS011;6392;44.644;11.448;2024-03-06T14:17:34;3.43;;;1.17;;
12654;SDS011;6392;44.644;11.448;2024-03-06T14:20:01;4.30;;;1.40;;
12654;SDS011;6392;44.644;11.448;2024-03-06T14:22:28;1.40;;;1.00;;
12654;SDS011;6392;44.644;11.448;2024-03-06T14:24:55;3.53;;;1.00;;
12654;SDS011;6392;44.644;11.448;2024-03-06T14:27:23;3.37;;;1.20;;
12654;SDS011;6392;44.644;11.448;2024-03-06T14:29:51;3.03;;;0.80;;
12654;SDS011;6392;44.644;11.448;2024-03-06T14:32:19;2.67;;;0.90;;
12654;SDS011;6392;44.644;11.448;2024-03-06T14:34:46;2.53;;;0.80;;
12654;SDS011;6392;44.644;11.448;2024-03-06T14:37:13;1.67;;;0.97;;
12654;SDS011;6392;44.644;11.448;2024-03-06T14:39:40;3.13;;;1.00;;
12654;SDS011;6392;44.644;11.448;2024-03-06T14:42:08;2.07;;;1.10;;
12654;SDS011;6392;44.644;11.448;2024-03-06T14:44:36;2.40;;;1.07;;
12654;SDS011;6392;44.644;11.448;2024-03-06T14:47:04;2.40;;;1.13;;
12654;SDS011;6392;44.644;11.448;2024-03-06T14:49:32;2.87;;;1.10;;
12654;SDS011;6392;44.644;11.448;2024-03-06T14:51:59;1.77;;;1.00;;
12654;SDS011;6392;44.644;11.448;2024-03-06T14:54:27;1.40;;;0.97;;
12654;SDS011;6392;44.644;11.448;2024-03-06T14:56:54;3.97;;;1.30;;